»·PEaware :: N901TX KSNA-L52

N901TX :: KSNA-L52

FLIGHT INFORMATION

Flight Status: Arrived
Operator: Privately registered:
United States
More flights under this callsign
Pilot: Andrew J. (13363)
Aircraft: SOCATA TBM-900
(TBM9)
More flights by this aircraft type
Origin: KSNA John Wayne-Orange Co
United States
Destination: L52 Oceano Co
United States
More flights between these airports :: More routes between these airports
Route: HHERO3 IKAYE RZS
File this flight plan on PilotEdge
Remarks:
Altitude:
(Current/Filed)
20,000ft
Speed:
(Current/Filed)
310kts
Departed: 19-Aug-18 10:56 PM
Arrived: 19-Aug-18 11:41 PM
Distance/Time
Traveled:
161nm/0:45
Distance/Time
To Go:
Arrived

Flight Plot

Page will automatically refresh every two minutes.

Flight plan parsing failed; only flown route is shown


Map Options




Map Legend


Flown Route
Filed Route
Departure Airport
Arrival Airport
Navaid (VOR, NDB)
Fix

Horizontal Profiles

Position Reports

Time Latitude Longitude Heading Altitude Ground
Speed
19-Aug-18 22:47 33.665699 -117.873528 50 59ft 0kts
19-Aug-18 22:48 33.665699 -117.873528 50 59ft 0kts
19-Aug-18 22:49 33.665699 -117.873528 50 59ft 0kts
19-Aug-18 22:50 33.665699 -117.873528 50 59ft 0kts
19-Aug-18 22:51 33.665699 -117.873527 50 59ft 0kts
19-Aug-18 22:52 33.666877 -117.873100 31 59ft 7kts
19-Aug-18 22:53 33.668806 -117.871299 45 59ft 17kts
19-Aug-18 22:54 33.673249 -117.867135 36 59ft 17kts
19-Aug-18 22:55 33.677082 -117.864540 26 59ft 17kts
19-Aug-18 22:56 33.680133 -117.864042 307 59ft 4kts
19-Aug-18 22:57 33.677152 -117.866081 207 59ft 86kts
19-Aug-18 22:58 33.647761 -117.886211 200 1634ft 134kts
19-Aug-18 22:59 33.611677 -117.892929 188 3687ft 133kts
19-Aug-18 23:00 33.572198 -117.900957 213 5233ft 158kts
19-Aug-18 23:01 33.538925 -117.936236 221 6880ft 164kts
19-Aug-18 23:02 33.505509 -117.973911 221 8926ft 168kts
19-Aug-18 23:03 33.474027 -118.015569 236 10819ft 175kts
19-Aug-18 23:04 33.449041 -118.066320 236 12522ft 180kts
19-Aug-18 23:05 33.423293 -118.118725 236 14211ft 187kts
19-Aug-18 23:06 33.415981 -118.178133 279 16111ft 197kts
19-Aug-18 23:07 33.428285 -118.242402 280 17973ft 202kts
19-Aug-18 23:08 33.442893 -118.308040 295 19669ft 215kts
19-Aug-18 23:09 33.473562 -118.378154 295 20059ft 263kts
19-Aug-18 23:10 33.509264 -118.460060 295 20043ft 288kts
19-Aug-18 23:11 33.557686 -118.538241 310 20039ft 297kts
19-Aug-18 23:12 33.613495 -118.611723 311 20036ft 300kts
19-Aug-18 23:13 33.668946 -118.684618 310 20019ft 301kts
19-Aug-18 23:14 33.725299 -118.758846 310 20003ft 301kts
19-Aug-18 23:15 33.781647 -118.833216 310 19992ft 301kts
19-Aug-18 23:16 33.837808 -118.907479 309 19997ft 299kts
19-Aug-18 23:17 33.893598 -118.981466 310 19994ft 298kts
19-Aug-18 23:18 33.948907 -119.054938 310 19991ft 296kts
19-Aug-18 23:19 34.003524 -119.127634 310 19989ft 289kts
19-Aug-18 23:20 34.057157 -119.199175 310 19991ft 286kts
19-Aug-18 23:21 34.109714 -119.269420 310 19989ft 285kts
19-Aug-18 23:22 34.162704 -119.340380 310 19989ft 285kts
19-Aug-18 23:23 34.215643 -119.411421 310 19989ft 285kts
19-Aug-18 23:24 34.269900 -119.484400 310 19218ft 305kts
19-Aug-18 23:25 34.327620 -119.562175 310 18042ft 314kts
19-Aug-18 23:26 34.385690 -119.640601 310 16766ft 312kts
19-Aug-18 23:27 34.443203 -119.718455 310 15470ft 310kts
19-Aug-18 23:28 34.500252 -119.795852 310 14178ft 308kts
19-Aug-18 23:29 34.556976 -119.872976 310 12880ft 302kts
19-Aug-18 23:30 34.612301 -119.948365 310 11579ft 297kts
19-Aug-18 23:31 34.666699 -120.022649 310 10362ft 294kts
19-Aug-18 23:32 34.720069 -120.095683 310 9158ft 285kts
19-Aug-18 23:33 34.772271 -120.167274 310 8057ft 280kts
19-Aug-18 23:34 34.822510 -120.236314 310 6946ft 265kts
19-Aug-18 23:35 34.870554 -120.302466 311 5841ft 259kts
19-Aug-18 23:36 34.918050 -120.367980 311 4739ft 257kts
19-Aug-18 23:37 34.965063 -120.432956 311 3642ft 256kts
19-Aug-18 23:38 35.012043 -120.498004 311 2355ft 250kts
19-Aug-18 23:39 35.053616 -120.553020 308 1356ft 184kts
19-Aug-18 23:40 35.075104 -120.583151 316 934ft 89kts
19-Aug-18 23:41 35.092835 -120.606517 306 456ft 94kts
19-Aug-18 23:42 35.102983 -120.625114 305 17ft 18kts
19-Aug-18 23:43 35.103529 -120.624660 146 17ft 3kts
19-Aug-18 23:44 35.103394 -120.624678 214 17ft 0kts
19-Aug-18 23:45 35.103395 -120.624678 214 17ft 0kts

Navigation Log

Ident Type
Flight plan parsing failed, navigation log unavailable